Cherkessk, Russia
Current Conditions -  °F | °C
As of 6:00 PM on Thursday 23 Oct 2014 (Local Time) from URMM Reporting Station
Smoke Smoke  
Wind Chill: 57°   Ceiling: 23000
Heat Index: 57°   Visibility: 2.9mi
Dew Point: 41°   Wind: 4mph
Humidity: 55%   Direction: 130°SE
Pressure: 29.94"   Gusts: NA
Location:  44.29°N, 42.06°E
Report Text: URMM 231500Z 13002MPS 4700 FU BKN230 14/05 Q1014 R12/CLRD70NOSIG RMK QFE732/0976
Loading
Personal Weather Stations






























Interactive Weather Map
Tropical Storm Tracking
New forecast layout! Learn more

10-Day Weather Forecast

Advertisements
Track Severe Weather on mobile